Time;durP1;ratioP1;P1;durP2;ratioP2;P2;SDS_P1;SDS_P2;PMS_P1;PMS_P2;Temp;Humidity;BMP_temperature;BMP_pressure;BME280_temperature;BME280_humidity;BME280_pressure;Samples;Min_cycle;Max_cycle;Signal;HPM_P1;HPM_P2
2023/09/21 00:00:59;;;;;;;2.10;1.40;;;;;;;19.37;69.90;99612.81;5034982;28;20229;-79
2023/09/21 00:03:28;;;;;;;1.87;1.53;;;;;;;19.37;69.13;99631.31;5034649;28;20296;-80
2023/09/21 00:05:55;;;;;;;1.63;1.53;;;;;;;19.39;69.23;99632.06;5038886;28;20232;-79
2023/09/21 00:08:23;;;;;;;1.47;1.37;;;;;;;19.27;68.12;99646.16;5054560;28;20212;-80
2023/09/21 00:10:50;;;;;;;1.77;1.30;;;;;;;19.33;68.73;99648.38;5054576;28;20298;-79
2023/09/21 00:13:17;;;;;;;1.83;1.67;;;;;;;19.36;68.42;99659.56;5024709;28;20201;-80
2023/09/21 00:15:44;;;;;;;1.57;1.37;;;;;;;19.41;69.15;99656.63;5028387;28;20684;-79
2023/09/21 00:18:10;;;;;;;1.50;1.40;;;;;;;19.47;68.55;99652.72;5035536;28;20210;-79
2023/09/21 00:20:42;;;;;;;1.40;1.30;;;;;;;19.44;69.24;99641.38;5034869;28;20230;-81
2023/09/21 00:23:09;;;;;;;1.73;1.57;;;;;;;19.41;69.08;99636.28;5034815;28;20211;-80
2023/09/21 00:25:36;;;;;;;2.40;1.90;;;;;;;19.39;69.12;99635.56;5034813;28;20324;-79
2023/09/21 00:28:07;;;;;;;2.80;1.90;;;;;;;19.40;67.81;99639.03;5032891;28;20210;-81
2023/09/21 00:30:35;;;;;;;2.47;1.60;;;;;;;19.42;68.26;99661.81;5033733;28;20245;-79
2023/09/21 00:33:02;;;;;;;2.20;1.60;;;;;;;19.44;68.49;99651.97;5034799;28;20309;-80
2023/09/21 00:35:29;;;;;;;1.67;1.40;;;;;;;19.41;68.80;99638.94;5042799;28;20648;-80
2023/09/21 00:37:57;;;;;;;1.60;1.50;;;;;;;19.42;68.76;99632.72;5054747;28;20236;-81
2023/09/21 00:40:23;;;;;;;2.47;1.87;;;;;;;19.35;68.32;99639.38;5053821;28;20766;-79
2023/09/21 00:42:51;;;;;;;2.37;1.40;;;;;;;19.40;68.83;99624.00;5046241;28;20209;-80
2023/09/21 00:45:18;;;;;;;1.60;1.50;;;;;;;19.35;69.36;99612.91;5018638;28;20214;-80
2023/09/21 00:47:49;;;;;;;2.33;1.50;;;;;;;19.33;70.23;99580.41;5019019;28;20256;-81
2023/09/21 00:50:19;;;;;;;2.63;1.73;;;;;;;19.36;69.68;99592.56;5024663;28;20723;-79
2023/09/21 00:52:47;;;;;;;2.23;1.60;;;;;;;19.29;69.35;99597.44;5039163;28;20271;-79
2023/09/21 00:55:18;;;;;;;1.57;1.47;;;;;;;19.32;69.79;99580.50;5038254;28;20206;-79
2023/09/21 00:57:46;;;;;;;2.03;1.77;;;;;;;19.31;69.96;99571.72;5037542;28;20245;-78
2023/09/21 01:00:13;;;;;;;2.10;1.63;;;;;;;19.30;70.39;99553.31;5018402;28;20202;-80
2023/09/21 01:02:42;;;;;;;1.93;1.57;;;;;;;19.30;70.01;99564.72;5018210;28;20215;-80
2023/09/21 01:05:17;;;;;;;2.73;1.83;;;;;;;19.27;70.33;99550.88;5045497;28;20201;-80
2023/09/21 01:07:46;;;;;;;1.63;1.47;;;;;;;19.24;69.78;99547.47;5058280;28;20684;-80
2023/09/21 01:10:13;;;;;;;1.57;1.47;;;;;;;19.28;70.47;99542.81;5058085;28;20208;-79
2023/09/21 01:12:44;;;;;;;1.80;1.67;;;;;;;19.26;69.16;99565.91;5059215;28;20243;-78
2023/09/21 01:15:11;;;;;;;1.70;1.40;;;;;;;19.15;68.73;99574.59;5041080;28;20206;-79
2023/09/21 01:17:39;;;;;;;1.50;1.40;;;;;;;19.22;69.33;99577.63;5039806;28;20206;-80
2023/09/21 01:20:22;;;;;;;2.43;1.67;;;;;;;19.19;69.81;99570.78;5040025;28;20242;-78
2023/09/21 01:22:56;;;;;;;1.70;1.60;;;;;;;19.27;68.62;99594.06;5038861;28;20748;-80
2023/09/21 01:25:23;;;;;;;3.50;1.50;;;;;;;19.31;67.82;99606.13;5039655;28;20213;-80
2023/09/21 01:27:51;;;;;;;2.37;1.57;;;;;;;19.33;67.88;99613.97;5039244;28;20268;-79
2023/09/21 01:30:18;;;;;;;1.37;1.20;;;;;;;19.34;67.71;99623.59;5037867;28;20233;-78
2023/09/21 01:32:46;;;;;;;4.00;1.50;;;;;;;19.31;68.83;99613.22;5039150;28;20205;-80
2023/09/21 01:35:16;;;;;;;2.03;1.47;;;;;;;19.31;68.50;99602.63;5052806;28;20244;-80
2023/09/21 01:37:45;;;;;;;1.90;1.70;;;;;;;19.30;67.56;99620.28;5058961;28;20265;-80
2023/09/21 01:40:16;;;;;;;1.77;1.67;;;;;;;19.32;67.19;99622.84;5058574;28;20205;-79
2023/09/21 01:42:46;;;;;;;1.97;1.60;;;;;;;19.35;67.15;99642.00;5058988;28;20209;-80
2023/09/21 01:45:12;;;;;;;1.90;1.80;;;;;;;19.35;67.75;99627.94;5044145;28;20199;-79
2023/09/21 01:47:39;;;;;;;1.83;1.70;;;;;;;19.37;67.81;99616.28;5018383;28;20685;-78
2023/09/21 01:50:10;;;;;;;2.03;1.83;;;;;;;19.37;67.04;99623.38;5019111;28;20229;-79
2023/09/21 01:52:36;;;;;;;1.50;1.40;;;;;;;19.39;66.65;99640.84;5018872;28;20243;-79
2023/09/21 01:55:06;;;;;;;1.60;1.50;;;;;;;19.34;66.59;99637.66;5019007;28;20237;-78
2023/09/21 01:57:33;;;;;;;3.37;1.57;;;;;;;19.35;66.20;99647.31;5019408;28;20735;-81
2023/09/21 02:00:11;;;;;;;1.60;1.50;;;;;;;19.36;66.53;99640.22;5034234;28;20569;-79
2023/09/21 02:02:37;;;;;;;2.23;1.50;;;;;;;19.33;66.61;99638.63;5019152;28;20229;-77
2023/09/21 02:05:04;;;;;;;1.60;1.50;;;;;;;19.28;66.53;99624.84;5043610;28;20204;-78
2023/09/21 02:07:31;;;;;;;2.57;1.83;;;;;;;19.29;66.80;99628.38;5059214;28;20233;-80
2023/09/21 02:09:58;;;;;;;5.10;1.77;;;;;;;19.29;66.90;99617.78;5033389;28;20206;-80
2023/09/21 02:12:25;;;;;;;1.80;1.67;;;;;;;19.27;66.72;99631.09;5018694;28;20321;-79
2023/09/21 02:14:52;;;;;;;2.97;1.83;;;;;;;19.30;66.38;99622.09;5018008;28;20231;-79
2023/09/21 02:17:24;;;;;;;2.10;1.90;;;;;;;19.27;66.34;99631.09;5017848;28;20206;-80
2023/09/21 02:19:50;;;;;;;2.90;2.37;;;;;;;19.28;65.88;99627.50;5018341;28;20217;-78
2023/09/21 02:22:16;;;;;;;3.37;1.87;;;;;;;19.21;66.45;99624.44;5017617;28;20237;-80
2023/09/21 02:24:43;;;;;;;1.73;1.63;;;;;;;19.23;66.55;99616.41;5023706;28;20202;-79
2023/09/21 02:27:09;;;;;;;2.90;1.70;;;;;;;19.23;66.16;99619.03;5026601;28;20297;-80
2023/09/21 02:29:40;;;;;;;2.50;1.67;;;;;;;19.22;66.58;99615.53;5017743;28;20647;-80
2023/09/21 02:32:07;;;;;;;2.00;1.90;;;;;;;19.23;66.33;99605.81;5017277;28;20737;-80
2023/09/21 02:34:35;;;;;;;1.80;1.70;;;;;;;19.19;66.29;99621.03;5033713;28;20268;-80
2023/09/21 02:37:03;;;;;;;2.93;1.90;;;;;;;19.14;66.82;99596.69;5057334;28;20715;-79
2023/09/21 02:39:29;;;;;;;2.20;1.83;;;;;;;19.15;66.80;99601.03;5055447;28;20316;-78
2023/09/21 02:41:56;;;;;;;1.73;1.63;;;;;;;19.09;66.17;99597.94;5016750;28;20260;-78
2023/09/21 02:44:23;;;;;;;1.70;1.60;;;;;;;19.08;66.64;99602.38;5016733;28;20501;-79
2023/09/21 02:46:50;;;;;;;2.60;2.10;;;;;;;19.09;66.01;99611.16;5021154;28;20274;-79
2023/09/21 02:49:16;;;;;;;2.07;1.70;;;;;;;19.01;66.37;99593.19;5030170;28;20287;-78
2023/09/21 02:51:44;;;;;;;3.23;1.80;;;;;;;18.99;65.52;99595.94;5036901;28;20233;-80
2023/09/21 02:54:11;;;;;;;2.10;1.80;;;;;;;19.03;65.81;99594.78;5036866;28;20361;-77
2023/09/21 02:56:38;;;;;;;2.33;2.13;;;;;;;19.08;66.30;99596.25;5036187;28;20206;-78
2023/09/21 02:59:05;;;;;;;2.33;1.83;;;;;;;19.01;66.29;99590.56;5037230;28;20220;-79
2023/09/21 03:01:32;;;;;;;2.00;1.77;;;;;;;19.00;66.25;99580.91;5037196;28;20239;-80
2023/09/21 03:03:59;;;;;;;2.50;1.93;;;;;;;18.99;66.59;99569.50;5039089;28;20218;-79
2023/09/21 03:06:25;;;;;;;2.23;1.87;;;;;;;18.99;65.97;99572.13;5054795;28;20276;-79
2023/09/21 03:08:53;;;;;;;1.80;1.70;;;;;;;18.96;66.16;99571.50;5056080;28;20205;-79
2023/09/21 03:11:19;;;;;;;2.27;1.83;;;;;;;19.00;65.77;99581.75;5046754;28;20232;-78
2023/09/21 03:13:45;;;;;;;2.83;1.73;;;;;;;18.97;64.98;99611.06;5035226;28;20225;-77
2023/09/21 03:16:13;;;;;;;2.77;1.80;;;;;;;19.04;64.99;99616.78;5034948;28;20213;-77
2023/09/21 03:18:41;;;;;;;2.33;2.10;;;;;;;19.04;65.37;99612.31;5035795;28;20209;-79
2023/09/21 03:21:15;;;;;;;1.90;1.70;;;;;;;19.03;65.65;99605.34;5036305;28;20319;-79
2023/09/21 03:23:41;;;;;;;2.93;1.90;;;;;;;19.03;66.00;99589.50;5035253;28;20695;-80
2023/09/21 03:26:14;;;;;;;2.50;2.03;;;;;;;19.01;65.70;99586.09;5022360;28;20218;-78
2023/09/21 03:28:40;;;;;;;2.83;1.90;;;;;;;18.98;65.83;99586.28;5015915;28;20230;-78
2023/09/21 03:31:06;;;;;;;1.70;1.60;;;;;;;18.98;66.61;99566.94;5015516;28;20237;-78
2023/09/21 03:33:33;;;;;;;2.10;1.70;;;;;;;18.90;66.03;99577.19;5015651;28;20203;-78
2023/09/21 03:35:59;;;;;;;1.90;1.63;;;;;;;18.77;66.57;99575.34;5053744;28;20239;-80
2023/09/21 03:38:27;;;;;;;1.90;1.80;;;;;;;18.75;66.65;99549.94;5055715;28;20205;-79
2023/09/21 03:40:54;;;;;;;2.17;2.03;;;;;;;18.80;66.16;99558.44;5046010;28;20224;-79
2023/09/21 03:43:23;;;;;;;2.50;1.70;;;;;;;18.80;65.86;99559.28;5034214;28;20214;-78
2023/09/21 03:45:50;;;;;;;1.77;1.67;;;;;;;18.73;65.60;99568.56;5035186;28;20212;-80
2023/09/21 03:48:18;;;;;;;1.80;1.70;;;;;;;18.76;65.78;99564.88;5034983;28;20236;-80
2023/09/21 03:50:44;;;;;;;2.07;1.87;;;;;;;18.75;66.17;99553.47;5034669;28;20228;-79
2023/09/21 03:53:11;;;;;;;1.60;1.50;;;;;;;18.70;65.66;99546.78;5035255;28;20208;-80
2023/09/21 03:55:38;;;;;;;2.00;1.87;;;;;;;18.73;66.25;99558.00;5035533;28;20301;-79
2023/09/21 03:58:05;;;;;;;2.97;1.80;;;;;;;18.79;65.96;99559.34;5034839;28;20228;-80
2023/09/21 04:00:36;;;;;;;2.23;2.03;;;;;;;18.75;65.57;99563.16;5034897;28;20639;-79
2023/09/21 04:03:06;;;;;;;3.47;2.07;;;;;;;18.73;66.03;99557.13;5035492;28;20224;-79
2023/09/21 04:05:34;;;;;;;3.10;1.67;;;;;;;18.63;66.35;99544.53;5049260;28;20231;-78
2023/09/21 04:08:01;;;;;;;2.00;1.70;;;;;;;18.58;66.52;99537.88;5054302;28;20235;-79
2023/09/21 04:10:30;;;;;;;2.00;1.77;;;;;;;18.56;66.58;99527.38;5054808;28;20240;-78
2023/09/21 04:12:56;;;;;;;1.90;1.80;;;;;;;18.62;66.39;99531.44;5055248;28;20925;-80
2023/09/21 04:15:24;;;;;;;2.00;1.80;;;;;;;18.63;66.82;99527.81;5046671;28;20216;-78
2023/09/21 04:17:53;;;;;;;3.17;2.00;;;;;;;18.65;66.18;99528.56;5034096;28;20300;-78
2023/09/21 04:20:21;;;;;;;1.87;1.77;;;;;;;18.70;66.17;99526.47;5034791;28;20205;-78
2023/09/21 04:22:49;;;;;;;2.50;1.80;;;;;;;18.71;66.30;99528.19;5033967;28;20292;-78
2023/09/21 04:25:17;;;;;;;3.00;2.20;;;;;;;18.67;66.01;99531.94;5035168;28;20779;-78
2023/09/21 04:27:45;;;;;;;2.50;1.90;;;;;;;18.63;66.85;99517.25;5035147;28;20236;-78
2023/09/21 04:30:14;;;;;;;2.07;1.90;;;;;;;18.63;66.57;99522.53;5034861;28;20680;-79
2023/09/21 04:32:41;;;;;;;2.17;1.87;;;;;;;18.65;66.89;99502.13;5033458;28;20192;-78
2023/09/21 04:35:09;;;;;;;2.87;2.00;;;;;;;18.59;66.82;99497.25;5044374;28;20253;-79
2023/09/21 04:37:38;;;;;;;1.87;1.77;;;;;;;18.56;66.89;99502.75;5054705;28;20211;-78
2023/09/21 04:40:06;;;;;;;2.07;1.77;;;;;;;18.52;67.21;99488.91;5054290;28;20595;-79
2023/09/21 04:42:34;;;;;;;2.07;1.90;;;;;;;18.53;66.42;99495.91;5053995;28;20204;-79
2023/09/21 04:45:01;;;;;;;1.63;1.53;;;;;;;18.59;67.22;99486.69;5052715;28;20208;-78
2023/09/21 04:47:28;;;;;;;2.20;1.83;;;;;;;18.58;67.16;99469.97;5054270;28;20230;-80
2023/09/21 04:49:55;;;;;;;3.40;1.77;;;;;;;18.54;67.45;99473.78;5043420;28;20210;-80
2023/09/21 04:52:23;;;;;;;1.93;1.83;;;;;;;18.52;67.89;99453.72;5014660;28;20230;-79
2023/09/21 04:54:51;;;;;;;2.43;2.10;;;;;;;18.58;67.45;99461.22;5014312;28;20306;-81
2023/09/21 04:57:18;;;;;;;2.17;1.77;;;;;;;18.57;67.53;99460.38;5014327;28;20199;-80
2023/09/21 04:59:44;;;;;;;2.80;1.90;;;;;;;18.58;67.98;99445.38;5014585;28;20218;-80
2023/09/21 05:02:11;;;;;;;2.10;2.00;;;;;;;18.49;67.40;99469.75;5014411;28;20247;-78
2023/09/21 05:04:38;;;;;;;1.97;1.70;;;;;;;18.56;67.37;99457.84;5030394;28;20212;-78
2023/09/21 05:07:05;;;;;;;2.93;2.13;;;;;;;18.60;67.69;99456.69;5051731;28;20232;-78
2023/09/21 05:09:33;;;;;;;2.73;2.00;;;;;;;18.59;68.20;99431.19;5015843;28;20217;-77
2023/09/21 05:12:00;;;;;;;2.60;2.17;;;;;;;18.55;67.94;99442.91;5015910;28;20242;-80
2023/09/21 05:14:27;;;;;;;2.03;1.90;;;;;;;18.56;67.88;99442.81;5017496;28;20216;-84
2023/09/21 05:16:57;;;;;;;3.67;2.00;;;;;;;18.57;68.09;99452.44;5038164;28;20702;-82
2023/09/21 05:19:23;;;;;;;3.03;2.10;;;;;;;18.54;67.82;99457.09;5051864;28;20218;-81
2023/09/21 05:21:49;;;;;;;2.03;1.90;;;;;;;18.52;68.13;99446.63;5051592;28;20784;-83
2023/09/21 05:24:16;;;;;;;3.60;2.03;;;;;;;18.54;67.95;99444.72;5048995;28;20208;-82
2023/09/21 05:26:44;;;;;;;2.30;2.10;;;;;;;18.57;68.00;99433.94;5012134;28;20688;-81
2023/09/21 05:29:11;;;;;;;4.17;1.70;;;;;;;18.62;68.30;99433.63;5015163;28;20569;-80
2023/09/21 05:31:37;;;;;;;1.93;1.73;;;;;;;18.59;68.53;99418.81;5015906;28;20240;-80
2023/09/21 05:34:03;;;;;;;2.83;1.70;;;;;;;18.60;68.84;99419.66;5028279;28;20213;-79
2023/09/21 05:36:30;;;;;;;1.80;1.70;;;;;;;18.56;68.87;99412.91;5054564;28;20212;-81
2023/09/21 05:38:56;;;;;;;2.33;1.97;;;;;;;18.57;68.70;99414.56;5055344;28;20204;-82
2023/09/21 05:41:23;;;;;;;2.23;1.90;;;;;;;18.58;68.76;99403.06;5055141;28;20575;-82
2023/09/21 05:43:52;;;;;;;3.30;2.03;;;;;;;18.59;68.94;99405.63;5024992;28;20257;-82
2023/09/21 05:46:19;;;;;;;2.00;1.70;;;;;;;18.63;68.42;99409.75;5026800;28;20206;-82
2023/09/21 05:48:45;;;;;;;1.90;1.80;;;;;;;18.64;67.99;99416.69;5034661;28;20233;-84
2023/09/21 05:51:12;;;;;;;2.33;1.80;;;;;;;18.75;68.39;99410.69;5035045;28;20754;-81
2023/09/21 05:53:38;;;;;;;3.53;2.10;;;;;;;18.65;69.77;99384.03;5035118;28;20213;-82
2023/09/21 05:56:05;;;;;;;2.13;1.63;;;;;;;18.69;69.12;99379.41;5035663;28;20205;-83
2023/09/21 05:58:32;;;;;;;1.60;1.50;;;;;;;18.78;69.16;99373.44;5035284;28;20396;-83
2023/09/21 06:01:00;;;;;;;2.13;1.90;;;;;;;18.81;69.00;99369.75;5035032;28;20229;-82
2023/09/21 06:03:28;;;;;;;2.03;1.63;;;;;;;18.82;69.85;99361.72;5035283;28;20275;-82
2023/09/21 06:05:54;;;;;;;2.57;2.07;;;;;;;18.81;70.45;99348.59;5047437;28;20201;-83
2023/09/21 06:08:21;;;;;;;2.20;2.00;;;;;;;18.84;70.75;99330.72;5054864;28;20229;-85
2023/09/21 06:10:47;;;;;;;1.87;1.77;;;;;;;18.86;70.82;99317.41;5055267;28;20690;-82
2023/09/21 06:13:14;;;;;;;4.17;2.40;;;;;;;18.85;71.12;99324.50;5054616;28;20212;-82
2023/09/21 06:15:46;;;;;;;1.83;1.70;;;;;;;18.79;71.77;99290.56;5043114;28;20205;-84
2023/09/21 06:18:17;;;;;;;1.87;1.57;;;;;;;18.82;70.94;99294.78;5034624;28;20205;-82
2023/09/21 06:20:44;;;;;;;2.33;1.77;;;;;;;18.67;71.04;99312.53;5035577;28;20669;-83
2023/09/21 06:23:10;;;;;;;2.00;1.80;;;;;;;18.84;71.10;99304.28;5035303;28;20217;-82
2023/09/21 06:25:37;;;;;;;3.00;1.63;;;;;;;18.86;70.56;99306.84;5035545;28;20253;-82
2023/09/21 06:28:04;;;;;;;1.70;1.60;;;;;;;18.89;70.89;99300.47;5039017;28;20287;-83
2023/09/21 06:30:32;;;;;;;1.80;1.70;;;;;;;18.92;71.04;99298.47;5039991;28;20270;-82
2023/09/21 06:32:58;;;;;;;2.73;1.80;;;;;;;18.88;71.61;99293.50;5040102;28;20199;-79
2023/09/21 06:35:27;;;;;;;6.43;1.80;;;;;;;18.94;71.69;99287.78;5054997;28;20209;-82
2023/09/21 06:37:54;;;;;;;2.30;2.13;;;;;;;18.91;70.11;99309.13;5061467;28;20216;-80
2023/09/21 06:40:21;;;;;;;2.47;1.80;;;;;;;18.95;70.67;99329.13;5059059;28;20240;-83
2023/09/21 06:42:47;;;;;;;1.97;1.80;;;;;;;18.97;71.96;99275.19;5060864;28;20221;-81
2023/09/21 06:45:14;;;;;;;1.87;1.63;;;;;;;18.93;70.21;99299.28;5038657;28;20214;-84
2023/09/21 06:47:42;;;;;;;2.37;1.90;;;;;;;19.06;70.95;99300.09;5035705;28;20227;-85
2023/09/21 06:50:11;;;;;;;1.70;1.60;;;;;;;19.09;70.88;99291.09;5034339;28;20737;-81
2023/09/21 06:52:38;;;;;;;1.80;1.70;;;;;;;19.17;69.35;99328.44;5021326;28;20203;-83
2023/09/21 06:55:06;;;;;;;3.13;1.63;;;;;;;19.15;68.75;99347.06;5015508;28;20220;-82
2023/09/21 06:57:34;;;;;;;2.50;1.77;;;;;;;19.25;70.11;99336.66;5015241;28;20579;-81
2023/09/21 07:00:01;;;;;;;1.50;1.40;;;;;;;19.27;68.48;99368.31;5015564;28;20210;-80
2023/09/21 07:02:28;;;;;;;2.87;1.97;;;;;;;19.28;69.18;99349.66;5017086;28;20227;-84
2023/09/21 07:04:55;;;;;;;2.97;1.90;;;;;;;19.36;70.22;99344.66;5035788;28;20205;-82
2023/09/21 07:07:21;;;;;;;3.67;1.77;;;;;;;19.43;68.63;99359.13;5049919;28;20213;-82
2023/09/21 07:09:49;;;;;;;1.70;1.60;;;;;;;19.48;70.20;99340.25;5034135;28;20210;-80
2023/09/21 07:12:15;;;;;;;2.13;1.67;;;;;;;19.49;70.11;99327.88;5032502;28;20620;-80
2023/09/21 07:14:42;;;;;;;2.50;1.77;;;;;;;19.57;69.94;99326.34;5034233;28;20209;-81
2023/09/21 07:17:08;;;;;;;2.27;1.80;;;;;;;19.59;70.63;99310.34;5033814;28;20240;-80
2023/09/21 07:19:36;;;;;;;1.73;1.60;;;;;;;19.65;70.35;99309.91;5034141;28;20573;-80
2023/09/21 07:22:02;;;;;;;1.90;1.80;;;;;;;19.63;69.54;99310.00;5033451;28;20226;-80
2023/09/21 07:24:29;;;;;;;1.73;1.63;;;;;;;19.67;70.22;99301.84;5033749;28;20206;-79
2023/09/21 07:26:57;;;;;;;1.93;1.73;;;;;;;19.81;69.09;99322.88;5014557;28;20265;-78
2023/09/21 07:29:24;;;;;;;2.03;1.60;;;;;;;19.87;69.87;99319.75;5015127;28;20222;-80
2023/09/21 07:31:51;;;;;;;1.90;1.80;;;;;;;19.82;70.02;99296.28;5028557;28;20219;-80
2023/09/21 07:34:18;;;;;;;4.07;1.73;;;;;;;19.85;68.92;99329.63;5026616;28;20218;-80
2023/09/21 07:36:46;;;;;;;1.80;1.67;;;;;;;19.89;68.73;99323.13;5030190;28;20237;-81
2023/09/21 07:39:13;;;;;;;2.67;1.50;;;;;;;19.96;68.26;99365.88;5014112;28;20199;-79
2023/09/21 07:41:40;;;;;;;1.60;1.50;;;;;;;20.10;68.68;99336.56;5013755;28;20226;-83
2023/09/21 07:44:09;;;;;;;1.60;1.47;;;;;;;20.18;68.36;99349.22;5032010;28;20684;-79
2023/09/21 07:46:36;;;;;;;1.73;1.50;;;;;;;20.28;66.35;99399.69;5032728;28;20281;-81
2023/09/21 07:49:04;;;;;;;1.80;1.60;;;;;;;20.43;65.56;99393.22;5032723;28;20226;-80
2023/09/21 07:51:31;;;;;;;1.50;1.40;;;;;;;20.50;66.93;99399.75;5033951;28;20226;-82
2023/09/21 07:54:00;;;;;;;1.70;1.60;;;;;;;20.55;65.56;99433.84;5034740;28;20236;-81
2023/09/21 07:56:27;;;;;;;1.73;1.63;;;;;;;20.62;65.79;99445.72;5034357;28;20246;-81
2023/09/21 07:58:54;;;;;;;1.83;1.70;;;;;;;20.74;67.43;99417.41;5033967;28;20205;-82
2023/09/21 08:01:21;;;;;;;1.40;1.30;;;;;;;20.89;65.54;99432.16;5034501;28;20455;-81
2023/09/21 08:03:50;;;;;;;1.73;1.60;;;;;;;20.99;65.77;99441.06;5034710;28;20209;-80
2023/09/21 08:06:17;;;;;;;1.90;1.53;;;;;;;21.08;66.98;99404.16;5052833;28;20275;-79
2023/09/21 08:08:43;;;;;;;1.80;1.70;;;;;;;21.07;64.44;99413.94;5053731;28;20250;-81
2023/09/21 08:11:09;;;;;;;1.90;1.40;;;;;;;21.17;64.21;99469.78;5053971;28;20236;-81
2023/09/21 08:13:36;;;;;;;2.57;1.60;;;;;;;21.22;67.64;99441.06;5053900;28;20215;-82
2023/09/21 08:16:03;;;;;;;1.53;1.43;;;;;;;21.29;66.65;99399.78;5054503;28;20207;-82
2023/09/21 08:18:31;;;;;;;1.90;1.70;;;;;;;21.37;66.63;99402.66;5036519;28;20285;-84
2023/09/21 08:20:58;;;;;;;4.10;1.40;;;;;;;21.42;65.20;99444.78;5023326;28;20234;-81
2023/09/21 08:23:24;;;;;;;1.60;1.50;;;;;;;21.46;64.74;99434.78;5014956;28;20210;-83
2023/09/21 08:25:50;;;;;;;4.03;1.70;;;;;;;21.52;65.26;99455.53;5015192;28;20674;-85
2023/09/21 08:28:17;;;;;;;1.60;1.50;;;;;;;21.53;63.96;99476.66;5014886;28;20226;-84
2023/09/21 08:30:43;;;;;;;2.60;1.43;;;;;;;21.52;64.11;99490.06;5014435;28;20619;-86
2023/09/21 08:33:11;;;;;;;2.73;1.20;;;;;;;21.55;64.94;99468.56;5016021;28;20661;-85
2023/09/21 08:35:40;;;;;;;4.33;1.60;;;;;;;21.54;64.25;99472.19;5036123;28;20212;-85
2023/09/21 08:38:07;;;;;;;1.50;1.40;;;;;;;21.52;62.20;99517.44;5047131;28;20206;-84
2023/09/21 08:40:34;;;;;;;2.07;1.90;;;;;;;21.47;62.00;99540.88;5033257;28;20238;-83
2023/09/21 08:43:04;;;;;;;2.23;1.50;;;;;;;21.48;62.48;99557.66;5034410;28;20731;-85
2023/09/21 08:45:32;;;;;;;1.87;1.70;;;;;;;21.53;63.48;99521.81;5035154;28;20206;-85
2023/09/21 08:47:59;;;;;;;1.60;1.50;;;;;;;21.54;64.99;99502.22;5034909;28;20209;-83
2023/09/21 08:50:26;;;;;;;1.60;1.50;;;;;;;21.60;64.30;99487.63;5034364;28;20206;-86
2023/09/21 08:52:55;;;;;;;3.37;1.63;;;;;;;21.52;61.67;99543.16;5030258;28;20586;-82
2023/09/21 08:55:25;;;;;;;2.63;1.70;;;;;;;21.55;62.57;99553.56;5017592;28;20196;-85
2023/09/21 08:57:53;;;;;;;2.90;1.53;;;;;;;21.53;63.05;99548.34;5034505;28;20199;-85
2023/09/21 09:00:22;;;;;;;1.77;1.47;;;;;;;21.65;63.31;99530.59;5034000;28;20658;-84
2023/09/21 09:02:50;;;;;;;3.73;1.63;;;;;;;21.58;64.15;99519.59;5034903;28;20217;-83
2023/09/21 09:05:18;;;;;;;2.40;1.70;;;;;;;21.59;64.64;99493.91;5047281;28;20235;-84
2023/09/21 09:07:45;;;;;;;3.40;1.80;;;;;;;21.56;64.98;99468.44;5058246;28;20675;-82
2023/09/21 09:10:15;;;;;;;1.90;1.50;;;;;;;21.58;64.06;99470.97;5046052;28;20219;-82
2023/09/21 09:12:42;;;;;;;2.30;1.57;;;;;;;21.64;65.04;99461.66;5018651;28;20221;-83
2023/09/21 09:15:10;;;;;;;1.90;1.70;;;;;;;21.71;65.97;99436.31;5019769;28;20234;-83
2023/09/21 09:17:37;;;;;;;2.20;1.60;;;;;;;21.72;64.29;99470.69;5020079;28;20397;-82
2023/09/21 09:20:05;;;;;;;1.97;1.87;;;;;;;21.84;64.62;99466.19;5033681;28;20249;-80
2023/09/21 09:22:34;;;;;;;3.03;1.70;;;;;;;21.84;64.17;99476.81;5039510;28;20241;-83
2023/09/21 09:25:05;;;;;;;2.00;1.90;;;;;;;21.79;62.81;99514.41;5038148;28;20646;-83
2023/09/21 09:27:33;;;;;;;2.90;1.90;;;;;;;21.98;65.24;99470.38;5039915;28;20753;-84
2023/09/21 09:30:04;;;;;;;2.10;1.53;;;;;;;21.97;62.29;99508.56;5037570;28;20316;-83
2023/09/21 09:32:44;;;;;;;1.50;1.40;;;;;;;22.06;64.18;99483.91;5039073;28;20270;-83
2023/09/21 09:35:13;;;;;;;1.70;1.60;;;;;;;22.09;63.97;99472.16;5054639;28;20216;-83
2023/09/21 09:38:31;;;;;;;2.10;1.90;;;;;;;22.08;62.65;99495.25;5045322;28;20260;-86
2023/09/21 09:44:44;;;;;;;1.87;1.40;;;;;;;22.08;62.01;99505.03;5033994;28;20716;-84
2023/09/21 09:50:54;;;;;;;2.40;1.67;;;;;;;22.09;61.09;99536.78;5018911;28;20233;-83
2023/09/21 09:53:38;;;;;;;2.13;1.10;;;;;;;22.11;60.72;99544.66;5020077;28;20633;-85
2023/09/21 09:56:44;;;;;;;1.60;1.50;;;;;;;22.26;61.68;99545.22;5019878;28;20206;-85
2023/09/21 09:59:47;;;;;;;1.90;1.63;;;;;;;22.36;61.32;99517.78;5019897;28;20269;-84
2023/09/21 10:03:03;;;;;;;1.50;1.40;;;;;;;22.52;61.10;99548.41;5018565;28;20230;-84
2023/09/21 10:06:05;;;;;;;1.70;1.37;;;;;;;22.64;58.78;99578.47;5043450;28;20263;-85
2023/09/21 10:08:36;;;;;;;1.23;1.13;;;;;;;22.81;59.34;99615.16;5058930;28;20233;-84
2023/09/21 10:11:17;;;;;;;1.60;1.30;;;;;;;22.82;60.09;99600.03;5060447;28;20233;-84
2023/09/21 10:13:51;;;;;;;1.60;1.50;;;;;;;22.97;59.60;99588.09;5061792;28;20213;-84
2023/09/21 10:16:31;;;;;;;2.50;1.50;;;;;;;23.10;59.19;99610.06;5060513;28;20565;-84
2023/09/21 10:19:00;;;;;;;1.53;1.40;;;;;;;23.21;60.81;99585.22;5060443;28;20240;-85
2023/09/21 10:21:31;;;;;;;3.23;1.60;;;;;;;23.31;60.51;99583.44;5049155;28;20246;-85
2023/09/21 10:24:03;;;;;;;1.30;1.20;;;;;;;23.37;58.54;99614.03;5040128;28;20202;-83
2023/09/21 10:26:33;;;;;;;2.03;1.50;;;;;;;23.41;59.42;99612.81;5041080;28;20260;-86
2023/09/21 10:29:03;;;;;;;1.97;1.50;;;;;;;23.48;59.25;99618.44;5041529;28;20230;-86
2023/09/21 10:31:30;;;;;;;2.80;1.57;;;;;;;23.60;59.13;99601.38;5040117;28;20226;-86
2023/09/21 10:34:09;;;;;;;3.63;1.60;;;;;;;23.52;58.22;99602.03;5038025;28;20244;-86
2023/09/21 10:36:43;;;;;;;1.70;1.60;;;;;;;23.68;58.35;99606.03;5061384;28;20224;-86
2023/09/21 10:39:25;;;;;;;2.10;1.43;;;;;;;23.83;59.60;99590.59;5038185;28;20240;-86
2023/09/21 10:41:53;;;;;;;1.40;1.30;;;;;;;23.69;57.42;99591.75;5028439;28;20218;-86
2023/09/21 10:44:55;;;;;;;2.83;1.50;;;;;;;23.63;57.41;99638.44;5039695;28;20209;-85
2023/09/21 10:47:22;;;;;;;3.20;1.67;;;;;;;23.84;60.10;99589.59;5040884;28;20206;-84
2023/09/21 10:49:50;;;;;;;2.73;1.30;;;;;;;23.82;58.14;99612.88;5039200;28;20704;-84
2023/09/21 10:52:18;;;;;;;1.37;1.27;;;;;;;23.85;58.65;99602.78;5039412;28;20416;-84
2023/09/21 10:54:45;;;;;;;1.87;1.50;;;;;;;23.81;58.08;99605.88;5039812;28;20202;-87
2023/09/21 10:57:13;;;;;;;1.97;1.20;;;;;;;23.84;59.18;99587.75;5040932;28;20588;-86
2023/09/21 10:59:39;;;;;;;1.73;1.40;;;;;;;23.92;58.59;99579.09;5029109;28;20205;-84
2023/09/21 11:02:06;;;;;;;1.50;1.40;;;;;;;24.05;58.84;99544.19;5021942;28;20318;-85
2023/09/21 11:04:33;;;;;;;2.13;1.43;;;;;;;23.79;57.18;99590.00;5036608;28;20213;-85
2023/09/21 11:06:59;;;;;;;1.63;1.47;;;;;;;23.90;58.34;99591.72;5057477;28;20201;-83
2023/09/21 11:09:27;;;;;;;1.50;1.40;;;;;;;23.88;57.77;99596.34;5056135;28;20226;-83
2023/09/21 11:11:55;;;;;;;2.23;1.40;;;;;;;23.94;58.61;99586.00;5027196;28;20613;-84
2023/09/21 11:14:23;;;;;;;1.37;1.27;;;;;;;23.69;57.56;99570.44;5025128;28;20674;-83
2023/09/21 11:16:50;;;;;;;2.70;1.47;;;;;;;23.88;58.97;99567.00;5025691;28;20203;-82
2023/09/21 11:19:16;;;;;;;2.20;1.63;;;;;;;23.79;57.69;99600.66;5024059;28;20206;-82
2023/09/21 11:21:44;;;;;;;1.87;1.20;;;;;;;23.84;60.09;99561.09;5024502;28;20647;-83
2023/09/21 11:24:11;;;;;;;1.60;1.50;;;;;;;23.79;59.28;99539.38;5024190;28;20195;-83
2023/09/21 11:26:49;;;;;;;2.10;1.40;;;;;;;23.84;60.71;99521.13;5025522;28;20199;-83
2023/09/21 11:29:16;;;;;;;2.47;1.60;;;;;;;23.87;59.08;99531.53;5016858;28;20230;-82
2023/09/21 11:31:44;;;;;;;1.90;1.27;;;;;;;23.88;61.24;99484.38;5025242;28;20224;-82
2023/09/21 11:34:11;;;;;;;2.50;1.50;;;;;;;23.84;60.64;99480.31;5030804;28;20206;-82
2023/09/21 11:36:37;;;;;;;1.67;1.40;;;;;;;23.84;61.33;99456.31;5053117;28;20232;-81
2023/09/21 11:39:08;;;;;;;1.77;1.40;;;;;;;23.92;59.79;99453.81;5036222;28;20202;-83
2023/09/21 11:41:39;;;;;;;3.67;1.50;;;;;;;23.99;62.45;99409.63;5035593;28;20241;-83
2023/09/21 11:44:07;;;;;;;1.97;1.50;;;;;;;24.02;61.52;99454.63;5029355;28;20556;-83
2023/09/21 11:46:34;;;;;;;2.67;1.50;;;;;;;24.14;60.21;99456.22;5035650;28;20658;-83
2023/09/21 11:49:03;;;;;;;1.53;1.40;;;;;;;24.28;61.29;99435.41;5033931;28;20206;-82